Salt Flat, Texas
Current Conditions -  °F | °C
As of 12:51 AM on Friday 21 Nov 2014 (Local Time) from KGDP Reporting Station
Clear Clear  
Wind Chill: 40°   Ceiling: Unl
Heat Index: 47°   Visibility: 10mi
Dew Point: 19°   Wind: 17mph
Humidity: 33%   Direction: 250°WSW
Pressure: 30.07"   Gusts: NA
Location:  31.33°N, 104.47°W
Report Text: KGDP 210751Z AUTO 25015KT 10SM CLR 08/M07 A3007 RMK AO2 SLP139 T00831072
Loading
Personal Weather Stations






























Interactive Weather Map New forecast layout! Learn more

10-Day Weather Forecast

Advertisements
Track Severe Weather on mobile